Time;durP1;ratioP1;P1;durP2;ratioP2;P2;SDS_P1;SDS_P2;PMS_P1;PMS_P2;Temp;Humidity;BMP_temperature;BMP_pressure;BME280_temperature;BME280_humidity;BME280_pressure;Samples;Min_cycle;Max_cycle;Signal;HPM_P1;HPM_P2
2021/11/05 00:06:03;;;;;;;2.58;0.50;;;5.90;99.90;;;;;;20566142;28;20031;-43
2021/11/05 00:16:05;;;;;;;0.60;0.28;;;5.90;99.90;;;;;;20584286;28;20505;-44
2021/11/05 00:26:06;;;;;;;0.77;0.22;;;5.90;99.90;;;;;;20576513;28;20047;-43
2021/11/05 00:36:13;;;;;;;1.00;0.32;;;5.90;99.90;;;;;;20551709;28;20047;-44
2021/11/05 00:46:14;;;;;;;0.88;0.32;;;5.90;99.90;;;;;;20556937;28;20033;-43
2021/11/05 00:56:16;;;;;;;0.98;0.30;;;5.90;99.90;;;;;;20543251;28;20062;-43
2021/11/05 01:06:20;;;;;;;1.60;0.52;;;5.80;99.90;;;;;;20548346;28;20046;-43
2021/11/05 01:16:21;;;;;;;0.73;0.30;;;5.70;99.90;;;;;;20571252;28;20046;-43
2021/11/05 01:26:22;;;;;;;0.88;0.32;;;5.60;99.90;;;;;;20528657;28;20555;-43
2021/11/05 01:36:24;;;;;;;1.65;0.47;;;5.60;99.90;;;;;;20542627;28;20054;-43
2021/11/05 01:46:26;;;;;;;1.20;0.40;;;5.60;99.90;;;;;;20543341;28;20059;-43
2021/11/05 01:56:27;;;;;;;0.32;0.17;;;5.50;99.90;;;;;;20533210;28;20054;-43
2021/11/05 02:06:29;;;;;;;0.35;0.20;;;5.40;99.90;;;;;;20539614;28;20035;-43
2021/11/05 02:16:31;;;;;;;0.80;0.28;;;5.40;99.90;;;;;;20540402;28;20066;-43
2021/11/05 02:26:33;;;;;;;0.30;0.20;;;5.50;99.90;;;;;;20536900;28;20026;-43
2021/11/05 02:36:34;;;;;;;1.52;0.30;;;5.50;99.90;;;;;;20541943;28;20066;-43
2021/11/05 02:46:35;;;;;;;0.40;0.20;;;5.50;99.90;;;;;;20546862;28;20408;-43
2021/11/05 02:56:36;;;;;;;0.47;0.20;;;5.50;99.90;;;;;;20581137;28;20054;-43
2021/11/05 03:06:43;;;;;;;0.75;0.35;;;5.40;99.90;;;;;;20529328;28;20488;-44
2021/11/05 03:16:44;;;;;;;1.08;0.20;;;5.30;99.90;;;;;;20543513;28;20142;-44
2021/11/05 03:26:45;;;;;;;0.45;0.20;;;5.20;99.90;;;;;;20564886;28;20046;-43
2021/11/05 03:36:47;;;;;;;0.30;0.10;;;5.20;99.90;;;;;;20538514;28;20090;-44
2021/11/05 03:46:48;;;;;;;0.38;0.20;;;5.20;99.90;;;;;;20534079;28;20703;-43
2021/11/05 03:56:49;;;;;;;0.20;0.10;;;5.10;99.90;;;;;;20538531;28;20057;-44
2021/11/05 04:06:50;;;;;;;1.13;0.43;;;5.10;99.90;;;;;;20540258;28;20038;-43
2021/11/05 04:16:52;;;;;;;0.25;0.10;;;5.00;99.90;;;;;;20545592;28;20042;-43
2021/11/05 04:26:53;;;;;;;2.78;0.30;;;5.00;99.90;;;;;;20544045;28;20053;-43
2021/11/05 04:36:54;;;;;;;0.95;0.22;;;4.90;99.90;;;;;;20544448;28;20054;-43
2021/11/05 04:46:55;;;;;;;0.63;0.10;;;4.80;99.90;;;;;;20544434;28;20500;-43
2021/11/05 04:56:56;;;;;;;0.65;0.20;;;4.80;99.90;;;;;;20555484;28;20053;-43
2021/11/05 05:06:57;;;;;;;0.50;0.10;;;4.80;99.90;;;;;;20541246;28;20047;-43
2021/11/05 05:16:58;;;;;;;0.65;0.30;;;4.80;99.90;;;;;;20544569;28;20039;-43
2021/11/05 05:26:59;;;;;;;0.90;0.38;;;4.70;99.90;;;;;;20547172;28;20049;-43
2021/11/05 05:37:02;;;;;;;0.20;0.10;;;4.70;99.90;;;;;;20535043;28;20046;-43
2021/11/05 05:47:04;;;;;;;0.63;0.20;;;4.70;99.90;;;;;;20544814;28;20474;-43
2021/11/05 05:57:05;;;;;;;1.67;0.40;;;4.80;99.90;;;;;;20542406;28;20054;-43
2021/11/05 06:07:07;;;;;;;1.52;0.20;;;4.90;99.90;;;;;;20514837;28;20043;-43
2021/11/05 06:17:08;;;;;;;0.52;0.20;;;5.00;99.90;;;;;;20530266;28;20042;-43
2021/11/05 06:27:09;;;;;;;0.45;0.13;;;5.20;99.90;;;;;;20540162;28;23244;-43
2021/11/05 06:37:10;;;;;;;0.80;0.20;;;5.40;99.90;;;;;;20546558;28;20058;-43
2021/11/05 06:47:11;;;;;;;0.80;0.25;;;5.50;99.90;;;;;;20528537;28;20042;-43
2021/11/05 06:57:12;;;;;;;1.90;0.30;;;5.50;99.90;;;;;;20532796;28;20525;-43
2021/11/05 07:07:14;;;;;;;1.08;0.90;;;5.50;99.90;;;;;;20530574;28;20516;-43
2021/11/05 07:17:15;;;;;;;0.38;0.20;;;5.40;99.90;;;;;;20545704;28;20054;-43
2021/11/05 07:27:16;;;;;;;0.52;0.20;;;5.30;99.90;;;;;;20532126;28;20043;-43
2021/11/05 07:37:18;;;;;;;1.77;0.45;;;5.40;99.90;;;;;;20555715;28;20054;-43
2021/11/05 07:47:22;;;;;;;0.30;0.13;;;5.70;99.90;;;;;;20564053;28;20043;-43
2021/11/05 07:57:24;;;;;;;1.70;0.40;;;5.90;99.90;;;;;;20512078;28;20070;-43
2021/11/05 08:07:25;;;;;;;2.95;0.57;;;6.20;99.90;;;;;;20544789;28;20043;-43
2021/11/05 08:17:27;;;;;;;1.63;0.52;;;6.50;99.90;;;;;;20555205;28;20179;-43
2021/11/05 08:27:29;;;;;;;2.67;1.30;;;7.00;99.90;;;;;;20556667;28;20057;-43
2021/11/05 08:37:30;;;;;;;1.35;0.40;;;7.50;99.90;;;;;;20553496;28;20050;-43
2021/11/05 08:47:31;;;;;;;1.35;0.50;;;7.90;99.90;;;;;;20551545;28;20057;-43
2021/11/05 08:57:33;;;;;;;1.35;0.35;;;8.20;99.90;;;;;;20560735;28;20063;-43
2021/11/05 09:07:35;;;;;;;1.23;0.52;;;8.60;99.90;;;;;;20570288;28;20034;-43
2021/11/05 09:17:38;;;;;;;2.25;0.40;;;8.90;99.90;;;;;;20556900;28;20090;-43
2021/11/05 09:27:40;;;;;;;2.40;1.10;;;9.20;99.90;;;;;;20557662;28;20038;-44
2021/11/05 09:37:44;;;;;;;2.05;0.50;;;9.50;99.90;;;;;;20542741;28;20046;-44
2021/11/05 09:47:46;;;;;;;1.73;0.60;;;9.70;99.90;;;;;;20547697;28;20547;-43
2021/11/05 09:57:49;;;;;;;8.20;1.15;;;10.30;99.90;;;;;;20533273;28;20058;-44
2021/11/05 10:07:53;;;;;;;2.47;0.50;;;10.70;99.90;;;;;;20568718;28;20113;-43
2021/11/05 10:18:11;;;;;;;0.30;0.10;;;10.70;99.90;;;;;;20552526;28;20035;-44
2021/11/05 10:28:25;;;;;;;4.70;0.10;;;10.70;99.90;;;;;;20556376;28;20076;-44
2021/11/05 10:38:27;;;;;;;0.88;0.20;;;10.70;99.90;;;;;;20551661;28;20054;-43
2021/11/05 10:48:30;;;;;;;4.75;1.13;;;11.00;99.90;;;;;;20551110;28;20042;-44
2021/11/05 10:58:35;;;;;;;2.40;0.20;;;11.40;99.90;;;;;;20571983;28;20627;-44
2021/11/05 11:08:42;;;;;;;3.70;0.15;;;11.30;99.90;;;;;;20611581;28;20389;-44
2021/11/05 11:18:50;;;;;;;0.03;0.00;;;11.70;99.90;;;;;;20543548;28;20066;-44
2021/11/05 11:28:51;;;;;;;2.45;0.15;;;12.30;99.90;;;;;;20543811;28;20045;-44
2021/11/05 11:38:53;;;;;;;2.10;0.20;;;12.10;99.90;;;;;;20535749;28;20066;-44
2021/11/05 11:48:56;;;;;;;0.08;0.00;;;11.50;99.90;;;;;;20538037;28;20054;-44
2021/11/05 11:59:06;;;;;;;0.43;0.10;;;11.40;99.90;;;;;;20569631;28;20092;-44
2021/11/05 12:09:23;;;;;;;0.68;0.20;;;11.70;99.90;;;;;;20545628;28;20050;-44
2021/11/05 12:19:35;;;;;;;1.20;0.20;;;11.80;99.90;;;;;;20558265;28;20057;-44
2021/11/05 12:29:38;;;;;;;1.02;0.50;;;12.20;99.90;;;;;;20540072;28;20046;-44
2021/11/05 12:39:43;;;;;;;0.75;0.10;;;11.80;99.90;;;;;;20545196;28;20416;-44
2021/11/05 12:49:44;;;;;;;1.17;0.20;;;11.80;99.90;;;;;;20549407;28;20035;-44
2021/11/05 12:59:51;;;;;;;2.28;0.13;;;12.10;99.90;;;;;;20556589;28;20785;-44
2021/11/05 13:09:52;;;;;;;0.17;0.00;;;11.80;99.90;;;;;;20555746;28;20038;-44
2021/11/05 13:20:00;;;;;;;0.32;0.10;;;11.50;99.90;;;;;;20537758;28;20041;-44
2021/11/05 13:30:05;;;;;;;3.50;0.20;;;11.60;99.90;;;;;;20546709;28;20038;-44
2021/11/05 13:40:08;;;;;;;0.10;0.00;;;11.90;99.90;;;;;;20536169;28;20208;-44
2021/11/05 13:50:13;;;;;;;0.55;0.00;;;12.10;99.90;;;;;;20541168;28;20076;-44
2021/11/05 14:00:14;;;;;;;1.95;0.10;;;12.00;99.90;;;;;;20542356;28;20038;-44
2021/11/05 14:10:15;;;;;;;1.73;0.10;;;12.10;99.90;;;;;;20554256;28;20186;-44
2021/11/05 14:20:26;;;;;;;1.02;0.10;;;12.20;99.90;;;;;;20550039;28;20051;-44
2021/11/05 14:30:32;;;;;;;1.83;0.47;;;13.50;99.90;;;;;;20499693;28;20031;-44
2021/11/05 14:40:34;;;;;;;8.95;0.30;;;13.90;99.90;;;;;;20527999;28;20054;-44
2021/11/05 14:50:46;;;;;;;1.48;0.10;;;13.40;99.90;;;;;;20504032;28;20046;-44
2021/11/05 15:01:04;;;;;;;1.85;0.20;;;13.20;99.90;;;;;;20556118;28;20051;-44
2021/11/05 15:11:07;;;;;;;0.40;0.00;;;13.10;99.90;;;;;;20514878;28;20035;-44
2021/11/05 15:21:10;;;;;;;0.10;0.00;;;12.70;99.90;;;;;;20550286;28;20432;-44
2021/11/05 15:31:12;;;;;;;0.17;0.00;;;12.20;99.90;;;;;;20538694;28;20046;-44
2021/11/05 15:41:14;;;;;;;3.72;0.32;;;11.70;99.90;;;;;;20541109;28;20055;-44
2021/11/05 15:51:16;;;;;;;0.17;0.08;;;11.30;99.90;;;;;;20544885;28;20038;-43
2021/11/05 16:01:17;;;;;;;0.43;0.20;;;11.10;99.90;;;;;;20560635;28;20054;-44
2021/11/05 16:11:19;;;;;;;0.30;0.20;;;10.80;99.90;;;;;;20548571;28;20066;-44
2021/11/05 16:21:20;;;;;;;1.50;0.28;;;10.60;99.90;;;;;;20548214;28;20053;-44
2021/11/05 16:31:21;;;;;;;0.70;0.15;;;10.50;99.90;;;;;;20561871;28;20043;-44
2021/11/05 16:41:23;;;;;;;2.28;0.50;;;10.50;99.90;;;;;;20547111;28;20062;-44
2021/11/05 16:51:28;;;;;;;1.05;0.15;;;10.40;99.90;;;;;;20584059;28;20493;-44
2021/11/05 17:01:32;;;;;;;3.05;0.40;;;10.40;99.90;;;;;;20559501;28;20069;-44
2021/11/05 17:11:34;;;;;;;2.80;0.73;;;10.40;99.90;;;;;;20578565;28;20038;-44
2021/11/05 17:21:35;;;;;;;2.28;0.40;;;10.30;99.90;;;;;;20556231;28;20043;-44
2021/11/05 17:31:36;;;;;;;4.82;0.50;;;10.20;99.90;;;;;;20557367;28;20038;-44
2021/11/05 17:41:38;;;;;;;3.33;0.68;;;9.90;99.90;;;;;;20544103;28;20058;-44
2021/11/05 17:51:39;;;;;;;0.80;0.45;;;9.80;99.90;;;;;;20544742;28;20524;-44
2021/11/05 18:01:41;;;;;;;1.20;0.40;;;9.70;99.90;;;;;;20554428;28;20055;-44
2021/11/05 18:11:43;;;;;;;4.85;0.73;;;9.60;99.90;;;;;;20556598;28;20363;-44
2021/11/05 18:21:45;;;;;;;3.05;0.50;;;9.50;99.90;;;;;;20569719;28;20050;-44
2021/11/05 18:31:47;;;;;;;2.88;0.38;;;9.40;99.90;;;;;;20585291;28;20046;-44
2021/11/05 18:41:51;;;;;;;1.08;0.40;;;9.20;99.90;;;;;;20552665;28;20598;-44
2021/11/05 18:51:52;;;;;;;2.38;0.40;;;9.10;99.90;;;;;;20501165;28;20437;-44
2021/11/05 19:01:54;;;;;;;2.20;0.55;;;9.10;99.90;;;;;;20530414;28;20073;-44
2021/11/05 19:11:55;;;;;;;1.95;0.60;;;9.10;99.90;;;;;;20544308;28;20066;-44
2021/11/05 19:22:00;;;;;;;3.03;1.45;;;8.90;99.90;;;;;;20542343;28;20050;-44
2021/11/05 19:32:03;;;;;;;1.75;0.70;;;8.80;99.90;;;;;;20534400;28;20041;-44
2021/11/05 19:42:06;;;;;;;1.95;0.90;;;8.80;99.90;;;;;;20545146;28;20061;-44
2021/11/05 19:52:08;;;;;;;1.55;0.70;;;8.80;99.90;;;;;;20590845;28;20027;-44
2021/11/05 20:02:09;;;;;;;1.88;0.93;;;8.70;99.90;;;;;;20573298;28;20046;-43
2021/11/05 20:12:10;;;;;;;2.60;1.00;;;8.60;99.90;;;;;;20536616;28;20054;-43
2021/11/05 20:22:11;;;;;;;2.10;0.93;;;8.70;99.90;;;;;;20568549;28;20042;-44
2021/11/05 20:32:12;;;;;;;1.70;0.65;;;8.70;99.90;;;;;;20569864;28;20055;-44
2021/11/05 20:42:13;;;;;;;3.85;0.57;;;8.70;99.90;;;;;;20554941;28;20066;-44
2021/11/05 20:52:15;;;;;;;2.85;1.10;;;8.90;99.90;;;;;;20548096;28;20669;-44
2021/11/05 21:02:16;;;;;;;2.70;0.65;;;8.90;99.90;;;;;;20551900;28;20070;-44
2021/11/05 21:12:18;;;;;;;7.55;1.20;;;9.00;99.90;;;;;;20547192;28;20039;-43
2021/11/05 21:22:19;;;;;;;3.83;1.10;;;9.00;99.90;;;;;;20538807;28;20058;-44
2021/11/05 21:32:22;;;;;;;4.35;0.90;;;9.10;99.90;;;;;;20537725;28;20125;-44
2021/11/05 21:42:23;;;;;;;3.05;1.30;;;8.90;99.90;;;;;;20532850;28;20050;-44
2021/11/05 21:52:25;;;;;;;2.25;0.90;;;8.80;99.90;;;;;;20532450;28;20488;-44
2021/11/05 22:02:26;;;;;;;2.30;0.80;;;8.70;99.90;;;;;;20533176;28;20180;-44
2021/11/05 22:12:28;;;;;;;2.17;0.77;;;8.70;99.90;;;;;;20531465;28;20448;-44
2021/11/05 22:22:30;;;;;;;1.98;0.95;;;8.70;99.90;;;;;;20520713;28;20444;-43
2021/11/05 22:32:31;;;;;;;3.38;1.15;;;8.70;99.90;;;;;;20558744;28;20039;-44
2021/11/05 22:42:35;;;;;;;2.10;1.00;;;8.70;99.90;;;;;;20574663;28;20058;-44
2021/11/05 22:52:36;;;;;;;1.73;0.80;;;8.70;99.90;;;;;;20528864;28;20053;-43
2021/11/05 23:02:37;;;;;;;3.88;2.28;;;8.70;99.90;;;;;;20545564;28;20441;-43
2021/11/05 23:12:38;;;;;;;3.70;1.00;;;8.60;99.90;;;;;;20540029;28;20035;-44
2021/11/05 23:22:40;;;;;;;2.33;1.15;;;8.60;99.90;;;;;;20549127;28;20233;-44
2021/11/05 23:32:41;;;;;;;4.28;0.85;;;8.70;99.90;;;;;;20536049;28;20042;-44
2021/11/05 23:42:46;;;;;;;1.15;0.60;;;8.70;99.90;;;;;;20536757;28;20042;-44
2021/11/05 23:52:49;;;;;;;2.65;1.02;;;8.60;99.90;;;;;;20524873;28;20047;-43
